Terminal Aerodrome Forecast
Issued by NWS

Home | Current Version | Previous Version | Text Only | Print | Product List | Glossary On
Versions: 1 2 3 4 5 6 7 8 9 10 11 12 13 14 15 16 17 18 19 20 21 22 23 24
861
FTUS46 KMFR 231140
TAFRBG
TAF
KRBG 231140Z 2312/2412 VRB02KT 5SM BR OVC005
     FM231700 00000KT P6SM BKN009 OVC020
     FM231800 00000KT P6SM BKN020 OVC050
     FM232100 VRB03KT P6SM -SHRA SCT025 BKN050
     FM240500 00000KT P6SM VCSH SCT025 BKN040
     FM241100 00000KT P6SM OVC007=

USA.gov is the U.S. government's official web portal to all federal, state and local government web resources and services.